Morgantown Municipal Walter L. Bill Hart Field
KMGW : now visible

Airfield :











YOU CAN JOIN US ON...

 
LOGIN :

Register | Disclaimer

   EN    FR    IT 

 









Legend :    VFR   Marginal VFR   IFR   Intensive IFR   Very Intensive IFR
Visi :
Ceiling :
>= 8 km
>= 3000ft
5 to 8 km
1000 to 3000 ft
1500m to 5 km
500 to 1000 ft
800 to 1500m
200 to 500 ft
< 800m
< 200 ft
Symbols :   Thunderstorms  Fog  Heavy snow  Heavy precipitations  Wind > 20 kt







- Airport Elevation : 1248 ft
- IATA code : MGW


KMGW - Morgantown Municipal Walter L. Bill Hart Field

CURRENT METAR :
  • 211553Z 20005KT 2SM BR OVC005 08/07 A3009 RMK AO2 CIG 004V010 SLP192 T00780072

EXPIRED METARs :
  • 211453Z 20004KT 2SM BR OVC006 08/07 A3007 RMK AO2 SLP185 T00780067 53023
  • 211438Z 21004KT 2 1/2SM BR OVC007 08/07 A3006 RMK AO2 T00780067
  • 211353Z 20007KT 5SM BR OVC007 08/06 A3004 RMK AO2 SLP177 T00780061
  • 211253Z 18004KT 3SM BR OVC009 08/06 A3002 RMK AO2 SLP169 T00780061

TAF KMGW
Valid from the 21 at 15:00 until the 22 at 12:00 UTC


211448Z 2115/2212 21004KT 2SM BR OVC007
FM211600 29007KT P6SM BKN015
FM212300 27007KT P6SM BKN025
KZOB FIR / North America



MET'MAP, your aeronautical weather chart ! - Copyright ORBIFLY December 2007 - Disclaimer

ORBIFLY MET'MAP TEAM :

Programming & Development : Alexandra Zaïnal
Concept & Development : Baudouin d'Aumeries
Co-Development & Prog : Marc-Olivier Méhu
Technical & hardware support : Manuel Goepfert

Contact : metmap@orbifly.com




SOURCES & CREDITS :

   NOAA       Earth
Advisory